createdAt,value
2018-03-31T00:07:55.540Z,15.77
2018-03-31T00:10:23.056Z,15.80
2018-03-31T00:12:50.084Z,16.63
2018-03-31T00:15:17.896Z,18.20
2018-03-31T00:17:44.932Z,14.40
2018-03-31T00:20:12.302Z,18.03
2018-03-31T00:22:39.329Z,15.63
2018-03-31T00:25:06.385Z,15.03
2018-03-31T00:27:33.408Z,15.83
2018-03-31T00:30:00.494Z,16.67
2018-03-31T00:32:27.518Z,16.83
2018-03-31T00:34:54.631Z,15.33
2018-03-31T00:37:22.449Z,15.30
2018-03-31T00:39:49.464Z,16.53
2018-03-31T00:42:16.518Z,14.57
2018-03-31T00:44:43.540Z,14.83
2018-03-31T00:47:11.385Z,16.97
2018-03-31T00:49:38.421Z,15.07
2018-03-31T00:52:05.444Z,16.80
2018-03-31T00:54:32.499Z,14.60
2018-03-31T00:57:00.025Z,16.57
2018-03-31T00:59:27.726Z,14.70
2018-03-31T01:01:54.757Z,14.53
2018-03-31T01:04:21.829Z,15.93
2018-03-31T01:06:48.886Z,17.90
2018-03-31T01:09:15.931Z,14.10
2018-03-31T01:11:42.972Z,17.33
2018-03-31T01:14:10.017Z,17.77
2018-03-31T01:16:37.044Z,16.20
2018-03-31T01:19:04.078Z,14.43
2018-03-31T01:21:31.121Z,16.77
2018-03-31T01:23:58.935Z,16.97
2018-03-31T01:26:25.950Z,17.30
2018-03-31T01:28:52.975Z,18.10
2018-03-31T01:31:20.768Z,15.53
2018-03-31T01:33:47.825Z,19.67
2018-03-31T01:36:14.848Z,15.30
2018-03-31T01:38:41.876Z,18.70
2018-03-31T01:41:09.725Z,15.40
2018-03-31T01:43:36.769Z,15.83
2018-03-31T01:46:03.797Z,16.43
2018-03-31T01:48:30.815Z,16.50
2018-03-31T01:50:57.866Z,17.67
2018-03-31T01:53:24.885Z,16.57
2018-03-31T01:55:52.685Z,15.30
2018-03-31T01:58:19.760Z,17.80
2018-03-31T02:00:46.809Z,16.70
2018-03-31T02:03:13.821Z,19.20
2018-03-31T02:05:40.888Z,17.93
2018-03-31T02:08:07.922Z,18.43
2018-03-31T02:10:35.252Z,19.23
2018-03-31T02:13:03.048Z,17.73
2018-03-31T02:15:30.096Z,18.03
2018-03-31T02:17:57.132Z,18.70
2018-03-31T02:20:24.142Z,19.57
2018-03-31T02:22:51.954Z,18.57
2018-03-31T02:25:18.968Z,17.80
2018-03-31T02:27:47.124Z,19.90
2018-03-31T02:30:14.152Z,18.87
2018-03-31T02:32:41.176Z,17.43
2018-03-31T02:35:08.212Z,17.53
2018-03-31T02:37:35.229Z,16.93
2018-03-31T02:40:03.104Z,19.13
2018-03-31T02:42:30.894Z,18.60
2018-03-31T02:44:57.925Z,16.17
2018-03-31T02:47:25.578Z,19.43
2018-03-31T02:49:53.381Z,17.43
2018-03-31T02:52:20.403Z,18.97
2018-03-31T02:54:47.442Z,21.50
2018-03-31T02:57:14.472Z,19.53
2018-03-31T02:59:42.262Z,17.77
2018-03-31T03:02:09.283Z,19.43
2018-03-31T03:04:36.742Z,20.30
2018-03-31T03:07:03.774Z,21.63
2018-03-31T03:09:31.412Z,23.67
2018-03-31T03:11:58.464Z,20.50
2018-03-31T03:14:25.574Z,19.40
2018-03-31T03:16:52.589Z,21.37
2018-03-31T03:19:19.630Z,20.57
2018-03-31T03:21:46.645Z,21.47
2018-03-31T03:24:13.690Z,22.27
2018-03-31T03:26:40.707Z,22.97
2018-03-31T03:29:08.512Z,21.47
2018-03-31T03:31:35.641Z,20.80
2018-03-31T03:34:03.004Z,22.43
2018-03-31T03:36:30.035Z,21.10
2018-03-31T03:38:57.054Z,21.90
2018-03-31T03:41:24.086Z,24.67
2018-03-31T03:43:51.107Z,21.70
2018-03-31T03:46:18.205Z,19.40
2018-03-31T03:48:45.262Z,22.53
2018-03-31T03:51:13.549Z,22.07
2018-03-31T03:53:40.588Z,21.63
2018-03-31T03:56:08.385Z,25.17
2018-03-31T03:58:35.414Z,21.67
2018-03-31T04:01:03.117Z,25.43
2018-03-31T04:03:30.458Z,27.23
2018-03-31T04:05:57.482Z,23.20
2018-03-31T04:08:30.081Z,25.43
2018-03-31T04:10:58.017Z,24.87
2018-03-31T04:13:25.052Z,24.90
2018-03-31T04:15:52.852Z,23.60
2018-03-31T04:18:19.993Z,26.33
2018-03-31T04:20:47.033Z,24.87
2018-03-31T04:23:14.075Z,26.40
2018-03-31T04:25:41.880Z,23.77
2018-03-31T04:28:08.928Z,25.13
2018-03-31T04:30:36.063Z,25.77
2018-03-31T04:33:04.541Z,26.90
2018-03-31T04:35:31.805Z,27.33
2018-03-31T04:37:58.827Z,28.37
2018-03-31T04:40:25.861Z,26.70
2018-03-31T04:42:53.647Z,27.93
2018-03-31T04:45:20.702Z,28.23
2018-03-31T04:47:48.540Z,30.27
2018-03-31T04:50:16.849Z,27.87
2018-03-31T04:52:43.896Z,27.97
2018-03-31T04:55:15.069Z,32.83
2018-03-31T04:57:42.195Z,29.57
2018-03-31T05:00:09.226Z,33.87
2018-03-31T05:15:41.421Z,30.43
2018-03-31T05:18:08.459Z,35.03
2018-03-31T05:20:35.480Z,29.80
2018-03-31T05:23:02.510Z,30.00
2018-03-31T05:25:30.312Z,30.03
2018-03-31T05:27:57.340Z,32.07
2018-03-31T05:30:24.706Z,33.57
2018-03-31T05:32:56.032Z,33.97
2018-03-31T05:35:23.836Z,32.97
2018-03-31T05:37:50.854Z,30.50
2018-03-31T05:40:18.986Z,31.57
2018-03-31T05:42:46.000Z,29.87
2018-03-31T05:45:13.045Z,30.93
2018-03-31T05:47:40.405Z,32.33
2018-03-31T05:50:07.753Z,33.17
2018-03-31T05:52:35.518Z,32.80
2018-03-31T05:55:02.567Z,33.17
2018-03-31T05:57:29.623Z,31.03
2018-03-31T06:02:30.138Z,30.50
2018-03-31T06:04:58.480Z,31.57
2018-03-31T06:07:26.126Z,32.77
2018-03-31T06:09:53.339Z,26.83
2018-03-31T06:12:20.842Z,27.63
2018-03-31T06:14:47.902Z,27.37
2018-03-31T06:17:14.912Z,27.70
2018-03-31T06:19:41.980Z,26.60
2018-03-31T06:22:08.992Z,29.57
2018-03-31T06:24:36.586Z,27.57
2018-03-31T06:27:04.325Z,25.93
2018-03-31T06:29:31.365Z,29.83
2018-03-31T06:31:58.425Z,24.17
2018-03-31T06:34:25.466Z,26.20
2018-03-31T06:36:53.068Z,25.97
2018-03-31T06:39:20.096Z,23.73
2018-03-31T06:54:52.538Z,22.13
2018-03-31T06:57:19.748Z,26.77
2018-03-31T06:59:46.786Z,23.30
2018-03-31T07:02:13.819Z,24.60
2018-03-31T07:04:40.913Z,24.93
2018-03-31T07:07:09.499Z,22.27
2018-03-31T07:09:40.875Z,23.60
2018-03-31T07:12:11.648Z,23.47
2018-03-31T07:14:39.177Z,24.20
2018-03-31T07:17:06.794Z,23.60
2018-03-31T07:19:34.934Z,25.77
2018-03-31T07:22:01.994Z,25.77
2018-03-31T07:24:29.037Z,26.70
2018-03-31T07:26:56.050Z,25.67
2018-03-31T07:29:23.912Z,23.80
2018-03-31T07:31:50.942Z,23.83
2018-03-31T07:34:18.768Z,25.63
2018-03-31T07:36:47.027Z,26.53
2018-03-31T07:39:17.924Z,23.03
2018-03-31T07:41:45.015Z,21.73
2018-03-31T07:44:17.948Z,23.73
2018-03-31T07:46:46.673Z,24.37
2018-03-31T07:49:13.699Z,23.53
2018-03-31T07:51:40.749Z,24.63
2018-03-31T07:54:07.952Z,25.33
2018-03-31T07:56:34.989Z,23.90
2018-03-31T07:59:02.725Z,25.57
2018-03-31T08:01:29.782Z,24.73
2018-03-31T08:03:56.807Z,28.23
2018-03-31T08:06:23.839Z,30.03
2018-03-31T08:08:52.315Z,25.43
2018-03-31T08:11:20.126Z,26.07
2018-03-31T08:13:47.198Z,26.17
2018-03-31T08:16:14.242Z,24.23
2018-03-31T08:18:41.292Z,24.73
2018-03-31T08:21:08.328Z,25.90
2018-03-31T08:23:35.641Z,25.43
2018-03-31T08:26:03.436Z,23.83
2018-03-31T08:28:30.461Z,24.17
2018-03-31T08:30:57.557Z,23.27
2018-03-31T08:33:24.619Z,22.60
2018-03-31T08:35:51.786Z,22.60
2018-03-31T08:38:19.589Z,24.43
2018-03-31T08:40:46.637Z,25.60
2018-03-31T08:43:14.544Z,24.30
2018-03-31T08:45:41.650Z,24.30
2018-03-31T08:48:08.694Z,24.10
2018-03-31T08:50:35.700Z,25.87
2018-03-31T08:53:02.759Z,27.03
2018-03-31T08:55:30.562Z,22.37
2018-03-31T08:57:57.638Z,24.43
2018-03-31T09:00:29.154Z,24.83
2018-03-31T09:02:56.276Z,21.87
2018-03-31T09:05:24.093Z,19.63
2018-03-31T09:07:51.108Z,20.57
2018-03-31T09:10:18.953Z,21.67
2018-03-31T09:12:45.977Z,23.73
2018-03-31T09:15:13.019Z,21.73
2018-03-31T09:17:40.068Z,21.67
2018-03-31T09:20:07.130Z,20.60
2018-03-31T09:22:36.062Z,21.60
2018-03-31T09:25:06.995Z,23.50
2018-03-31T09:27:34.801Z,19.53
2018-03-31T09:30:01.831Z,19.67
2018-03-31T09:32:28.888Z,18.83
2018-03-31T09:34:55.930Z,23.07
2018-03-31T09:37:22.999Z,19.87
2018-03-31T09:39:50.299Z,18.60
2018-03-31T09:42:18.520Z,21.13
2018-03-31T09:44:45.578Z,23.50
2018-03-31T09:47:12.644Z,20.33
2018-03-31T09:49:40.127Z,19.57
2018-03-31T09:52:07.916Z,24.20
2018-03-31T09:54:34.971Z,18.20
2018-03-31T09:57:02.018Z,20.77
2018-03-31T09:59:29.145Z,19.87
2018-03-31T10:01:56.979Z,16.90
2018-03-31T10:04:24.017Z,17.77
2018-03-31T10:06:51.072Z,17.80
2018-03-31T10:09:18.088Z,16.67
2018-03-31T10:11:45.128Z,18.77
2018-03-31T10:14:12.166Z,18.77
2018-03-31T10:16:39.196Z,18.80
2018-03-31T10:19:07.006Z,20.03
2018-03-31T10:21:34.889Z,19.20
2018-03-31T10:24:01.942Z,19.30
2018-03-31T10:26:28.989Z,20.00
2018-03-31T10:28:56.031Z,22.07
2018-03-31T10:31:23.641Z,18.53
2018-03-31T10:33:52.929Z,18.00
2018-03-31T10:36:20.736Z,21.77
2018-03-31T10:38:47.760Z,18.87
2018-03-31T10:41:16.455Z,19.50
2018-03-31T10:43:43.476Z,21.10
2018-03-31T10:46:11.323Z,18.60
2018-03-31T10:48:38.432Z,19.00
2018-03-31T10:51:05.471Z,18.33
2018-03-31T10:53:33.662Z,19.17
2018-03-31T10:56:00.678Z,23.57
2018-03-31T10:58:27.735Z,19.97
2018-03-31T11:00:58.480Z,21.07
2018-03-31T11:03:25.526Z,17.90
2018-03-31T11:05:52.572Z,16.93
2018-03-31T11:08:19.609Z,17.37
2018-03-31T11:10:47.410Z,16.70
2018-03-31T11:13:15.823Z,18.13
2018-03-31T11:15:42.884Z,16.67
2018-03-31T11:18:10.736Z,17.03
2018-03-31T11:20:37.822Z,17.90
2018-03-31T11:23:04.846Z,19.90
2018-03-31T11:25:32.689Z,17.43
2018-03-31T11:28:02.903Z,17.53
2018-03-31T11:30:29.931Z,16.67
2018-03-31T11:32:57.440Z,17.90
2018-03-31T11:35:25.258Z,17.47
2018-03-31T11:37:52.314Z,14.67
2018-03-31T11:40:19.342Z,14.50
2018-03-31T11:42:46.698Z,16.03
2018-03-31T11:45:14.065Z,15.47
2018-03-31T11:47:41.103Z,17.57
2018-03-31T11:50:08.293Z,17.77
2018-03-31T11:52:36.059Z,17.63
2018-03-31T11:55:05.236Z,18.77
2018-03-31T11:57:32.288Z,16.47
2018-03-31T11:59:59.330Z,15.63
2018-03-31T12:02:26.355Z,15.27
2018-03-31T12:04:53.420Z,14.00
2018-03-31T12:07:20.480Z,14.83
2018-03-31T12:09:47.542Z,14.87
2018-03-31T12:12:15.168Z,15.47
2018-03-31T12:14:45.182Z,15.43
2018-03-31T12:17:12.226Z,15.33
2018-03-31T12:19:40.213Z,12.77
2018-03-31T12:22:07.241Z,12.60
2018-03-31T12:24:38.078Z,12.40
2018-03-31T12:27:05.682Z,12.03
2018-03-31T12:29:32.686Z,12.47
2018-03-31T12:31:59.742Z,12.57
2018-03-31T12:34:26.816Z,11.70
2018-03-31T12:36:54.354Z,12.23
2018-03-31T12:39:21.441Z,12.13
2018-03-31T12:41:48.523Z,12.87
2018-03-31T12:44:15.638Z,12.23
2018-03-31T12:46:42.649Z,12.17
2018-03-31T12:49:09.689Z,11.90
2018-03-31T12:51:36.716Z,11.30
2018-03-31T12:54:04.532Z,12.17
2018-03-31T12:56:32.484Z,12.30
2018-03-31T12:59:07.212Z,13.40
2018-03-31T13:01:34.834Z,15.47
2018-03-31T13:04:06.659Z,14.30
2018-03-31T13:06:33.874Z,12.57
2018-03-31T13:09:00.929Z,13.10
2018-03-31T13:11:28.593Z,12.80
2018-03-31T13:13:55.622Z,12.90
2018-03-31T13:16:22.764Z,15.33
2018-03-31T13:18:49.859Z,15.10
2018-03-31T13:21:16.956Z,15.10
2018-03-31T13:23:45.080Z,14.20
2018-03-31T13:26:16.134Z,15.10
2018-03-31T13:28:47.292Z,12.20
2018-03-31T13:31:14.368Z,12.00
2018-03-31T13:33:42.394Z,12.27
2018-03-31T13:36:09.455Z,14.43
2018-03-31T13:38:36.503Z,12.67
2018-03-31T13:41:03.573Z,12.50
2018-03-31T13:43:31.529Z,9.70
2018-03-31T13:45:58.580Z,10.90
2018-03-31T13:48:26.337Z,10.77
2018-03-31T13:50:53.361Z,9.03
2018-03-31T13:53:20.438Z,12.40
2018-03-31T13:55:47.483Z,11.07
2018-03-31T13:58:14.507Z,11.43
2018-03-31T14:00:41.605Z,10.23
2018-03-31T14:03:13.233Z,10.60
2018-03-31T14:05:40.261Z,10.07
2018-03-31T14:08:07.298Z,10.13
2018-03-31T14:10:34.442Z,10.90
2018-03-31T14:13:01.928Z,9.77
2018-03-31T14:15:30.719Z,9.03
2018-03-31T14:17:57.761Z,10.50
2018-03-31T14:20:25.010Z,9.97
2018-03-31T14:22:52.062Z,10.40
2018-03-31T14:25:19.390Z,10.10
2018-03-31T14:27:47.406Z,9.50
2018-03-31T14:30:15.516Z,9.63
2018-03-31T14:32:43.027Z,10.10
2018-03-31T14:35:10.876Z,9.27
2018-03-31T14:37:37.911Z,9.80
2018-03-31T14:40:05.003Z,11.03
2018-03-31T14:42:32.834Z,10.90
2018-03-31T14:44:59.878Z,9.50
2018-03-31T14:47:26.917Z,10.40
2018-03-31T14:49:54.000Z,9.80
2018-03-31T14:52:21.497Z,8.83
2018-03-31T14:54:49.306Z,8.80
2018-03-31T14:57:16.330Z,9.50
2018-03-31T14:59:43.888Z,9.17
2018-03-31T15:02:10.916Z,9.67
2018-03-31T15:04:40.150Z,11.03
2018-03-31T15:07:07.186Z,12.20
2018-03-31T15:09:38.250Z,11.40
2018-03-31T15:12:05.857Z,11.30
2018-03-31T15:27:32.946Z,12.60
2018-03-31T15:29:59.975Z,12.60
2018-03-31T15:32:27.245Z,12.30
2018-03-31T15:34:54.298Z,12.77
2018-03-31T15:37:22.366Z,12.27
2018-03-31T15:39:49.406Z,13.60
2018-03-31T15:42:20.100Z,13.63
2018-03-31T15:44:52.028Z,12.97
2018-03-31T15:47:19.057Z,11.23
2018-03-31T15:49:46.113Z,11.13
2018-03-31T15:52:13.146Z,10.57
2018-03-31T15:57:33.367Z,10.47
2018-03-31T16:00:00.907Z,10.80
2018-03-31T16:02:28.330Z,11.87
2018-03-31T16:04:56.625Z,10.37
2018-03-31T16:07:23.662Z,10.30
2018-03-31T16:09:51.482Z,10.63
2018-03-31T16:12:18.537Z,9.93
2018-03-31T16:14:46.030Z,8.93
2018-03-31T16:17:13.828Z,9.80
2018-03-31T16:19:41.146Z,11.33
2018-03-31T16:22:08.950Z,13.53
2018-03-31T16:24:36.198Z,13.37
2018-03-31T16:27:03.257Z,12.30
2018-03-31T16:29:30.283Z,11.83
2018-03-31T16:31:57.349Z,13.50
2018-03-31T16:34:24.744Z,11.40
2018-03-31T16:36:56.284Z,10.40
2018-03-31T16:39:23.758Z,10.13
2018-03-31T16:41:50.807Z,10.57
2018-03-31T16:44:18.625Z,10.80
2018-03-31T16:46:45.652Z,10.60
2018-03-31T16:49:12.720Z,10.37
2018-03-31T16:51:39.743Z,9.60
2018-03-31T16:54:07.540Z,9.73
2018-03-31T16:56:34.571Z,11.13
2018-03-31T16:59:01.638Z,10.87
2018-03-31T17:01:28.708Z,11.60
2018-03-31T17:03:55.756Z,12.33
2018-03-31T17:06:23.575Z,12.03
2018-03-31T17:21:45.652Z,14.03
2018-03-31T17:24:12.684Z,14.20
2018-03-31T17:26:39.736Z,12.07
2018-03-31T17:29:06.795Z,11.53
2018-03-31T17:31:34.574Z,11.03
2018-03-31T17:34:05.549Z,11.87
2018-03-31T17:36:36.863Z,11.10
2018-03-31T17:39:03.895Z,11.13
2018-03-31T17:41:32.110Z,11.63
2018-03-31T17:44:00.230Z,11.57
2018-03-31T17:46:27.432Z,13.63
2018-03-31T17:48:58.942Z,14.67
2018-03-31T17:51:27.090Z,12.67
2018-03-31T17:53:54.157Z,12.07
2018-03-31T17:56:21.978Z,12.63
2018-03-31T17:58:49.016Z,13.07
2018-03-31T18:01:16.122Z,14.43
2018-03-31T18:03:51.692Z,15.90
2018-03-31T18:06:19.479Z,34.70
2018-03-31T18:08:46.527Z,37.33
2018-03-31T18:11:16.776Z,40.77
2018-03-31T18:13:45.588Z,37.33
2018-03-31T18:16:12.930Z,19.73
2018-03-31T18:18:39.991Z,18.40
2018-03-31T18:21:07.036Z,11.47
2018-03-31T18:23:34.984Z,11.03
2018-03-31T18:26:03.866Z,10.70
2018-03-31T18:28:35.027Z,10.87
2018-03-31T18:31:02.698Z,9.67
2018-03-31T18:33:34.148Z,12.20
2018-03-31T18:36:01.791Z,12.53
2018-03-31T18:38:29.547Z,15.77
2018-03-31T18:54:02.257Z,16.10
2018-03-31T18:56:33.282Z,16.17
2018-03-31T18:59:00.351Z,18.13
2018-03-31T19:01:28.208Z,18.43
2018-03-31T19:03:59.330Z,19.13
2018-03-31T19:06:26.385Z,15.67
2018-03-31T19:08:53.434Z,12.23
2018-03-31T19:11:20.451Z,15.07
2018-03-31T19:13:48.280Z,17.07
2018-03-31T19:16:15.311Z,16.77
2018-03-31T19:18:42.976Z,16.23
2018-03-31T19:21:10.973Z,16.70
2018-03-31T19:23:38.042Z,19.93
2018-03-31T19:26:09.781Z,20.97
2018-03-31T19:28:36.827Z,21.20
2018-03-31T19:31:03.946Z,19.80
2018-03-31T19:33:31.390Z,18.77
2018-03-31T19:36:04.742Z,19.37
2018-03-31T19:38:32.551Z,18.43
2018-03-31T19:41:03.344Z,21.23
2018-03-31T19:43:38.786Z,18.27
2018-03-31T19:46:06.446Z,20.57
2018-03-31T19:48:34.686Z,18.37
2018-03-31T19:51:05.621Z,19.10
2018-03-31T19:53:32.702Z,18.30
2018-03-31T19:55:59.750Z,17.77
2018-03-31T19:58:27.394Z,18.20
2018-03-31T20:00:55.294Z,17.40
2018-03-31T20:13:08.144Z,21.13
2018-03-31T20:15:36.731Z,20.27
2018-03-31T20:18:12.255Z,23.00
2018-03-31T20:20:40.233Z,24.33
2018-03-31T20:23:07.292Z,20.23
2018-03-31T20:25:34.353Z,22.33
2018-03-31T20:28:01.462Z,22.33
2018-03-31T20:30:29.232Z,20.87
2018-03-31T20:32:56.628Z,21.07
2018-03-31T20:35:28.554Z,18.63
2018-03-31T20:37:55.925Z,18.77
2018-03-31T20:40:22.954Z,19.10
2018-03-31T20:42:50.009Z,17.33
2018-03-31T20:45:17.048Z,16.83
2018-03-31T20:47:44.144Z,17.10
2018-03-31T20:50:15.141Z,17.67
2018-03-31T20:52:46.237Z,18.00
2018-03-31T20:55:13.274Z,18.73
2018-03-31T20:57:40.636Z,15.63
2018-03-31T21:00:07.677Z,17.20
2018-03-31T21:02:34.719Z,19.20
2018-03-31T21:05:03.367Z,16.90
2018-03-31T21:07:30.400Z,16.40
2018-03-31T21:09:57.458Z,17.37
2018-03-31T21:12:24.494Z,16.67
2018-03-31T21:14:51.540Z,20.60
2018-03-31T21:17:18.590Z,20.23
2018-03-31T21:19:45.790Z,18.37
2018-03-31T21:22:12.834Z,17.37
2018-03-31T21:24:39.871Z,18.43
2018-03-31T21:27:06.942Z,17.70
2018-03-31T21:29:33.971Z,18.20
2018-03-31T21:32:02.943Z,17.27
2018-03-31T21:34:29.983Z,20.60
2018-03-31T21:36:57.021Z,20.13
2018-03-31T21:39:24.820Z,16.63
2018-03-31T21:41:55.498Z,19.20
2018-03-31T21:44:23.872Z,17.50
2018-03-31T21:46:51.531Z,15.30
2018-03-31T21:49:18.794Z,15.30
2018-03-31T21:51:47.175Z,18.30
2018-03-31T21:54:14.983Z,14.77
2018-03-31T21:56:42.012Z,15.87
2018-03-31T21:59:09.082Z,19.37
2018-03-31T22:01:36.135Z,17.43
2018-03-31T22:04:03.815Z,17.93
2018-03-31T22:06:30.871Z,17.67
2018-03-31T22:18:42.933Z,19.17
2018-03-31T22:21:09.965Z,18.57
2018-03-31T22:23:37.011Z,19.67
2018-03-31T22:26:04.032Z,19.43
2018-03-31T22:28:31.074Z,20.33
2018-03-31T22:30:58.241Z,20.30
2018-03-31T22:33:25.293Z,21.43
2018-03-31T22:35:53.467Z,20.43
2018-03-31T22:38:20.538Z,22.17
2018-03-31T22:40:47.587Z,19.63
2018-03-31T22:43:14.661Z,21.10
2018-03-31T22:45:41.710Z,23.90
2018-03-31T22:48:09.557Z,23.17
2018-03-31T22:50:36.988Z,22.57
2018-03-31T22:53:04.218Z,23.07
2018-03-31T22:55:31.336Z,20.67
2018-03-31T22:57:58.361Z,21.53
2018-03-31T23:00:25.501Z,23.17
2018-03-31T23:02:52.704Z,21.60
2018-03-31T23:05:24.541Z,22.87
2018-03-31T23:07:52.533Z,22.67
2018-03-31T23:10:20.644Z,25.20
2018-03-31T23:12:47.708Z,22.47
2018-03-31T23:15:14.754Z,25.57
2018-03-31T23:17:41.791Z,27.33
2018-03-31T23:20:08.842Z,23.30
2018-03-31T23:22:35.861Z,25.67
2018-03-31T23:25:03.412Z,27.73
2018-03-31T23:27:31.211Z,27.60
2018-03-31T23:29:58.565Z,25.93
2018-03-31T23:32:25.582Z,26.23
2018-03-31T23:34:53.389Z,26.67
2018-03-31T23:37:21.185Z,31.23
2018-03-31T23:39:48.796Z,29.60
2018-03-31T23:42:15.819Z,27.80
2018-03-31T23:44:43.809Z,29.13
2018-03-31T23:47:10.868Z,28.90
2018-03-31T23:49:37.890Z,35.70
2018-03-31T23:52:05.901Z,34.27
2018-03-31T23:54:33.289Z,33.40
2018-03-31T23:57:00.664Z,34.50
2018-03-31T23:59:28.606Z,29.47
